sensor_id;sensor_type;location;lat;lon;timestamp;P1;durP1;ratioP1;P2;durP2;ratioP2
75446;SDS011;64024;55.820;37.574;2023-02-28T00:01:12;3.90;;;3.50;;
75446;SDS011;64024;55.820;37.574;2023-02-28T00:03:39;4.05;;;3.40;;
75446;SDS011;64024;55.820;37.574;2023-02-28T00:06:05;4.72;;;4.07;;
75446;SDS011;64024;55.820;37.574;2023-02-28T00:08:32;4.63;;;3.78;;
75446;SDS011;64024;55.820;37.574;2023-02-28T00:11:02;4.45;;;3.63;;
75446;SDS011;64024;55.820;37.574;2023-02-28T00:13:30;3.72;;;3.40;;
75446;SDS011;64024;55.820;37.574;2023-02-28T00:16:02;4.55;;;3.78;;
75446;SDS011;64024;55.820;37.574;2023-02-28T00:18:40;4.25;;;3.67;;
75446;SDS011;64024;55.820;37.574;2023-02-28T00:21:07;4.05;;;3.55;;
75446;SDS011;64024;55.820;37.574;2023-02-28T00:23:33;4.13;;;3.25;;
75446;SDS011;64024;55.820;37.574;2023-02-28T00:25:59;4.43;;;3.72;;
75446;SDS011;64024;55.820;37.574;2023-02-28T00:28:26;5.28;;;3.65;;
75446;SDS011;64024;55.820;37.574;2023-02-28T00:30:52;4.43;;;3.30;;
75446;SDS011;64024;55.820;37.574;2023-02-28T00:33:18;4.63;;;4.13;;
75446;SDS011;64024;55.820;37.574;2023-02-28T00:35:43;4.18;;;3.72;;
75446;SDS011;64024;55.820;37.574;2023-02-28T00:38:11;4.85;;;3.67;;
75446;SDS011;64024;55.820;37.574;2023-02-28T00:40:38;4.30;;;3.75;;
75446;SDS011;64024;55.820;37.574;2023-02-28T00:43:04;4.22;;;3.67;;
75446;SDS011;64024;55.820;37.574;2023-02-28T00:45:30;8.25;;;4.20;;
75446;SDS011;64024;55.820;37.574;2023-02-28T00:47:56;4.18;;;3.53;;
75446;SDS011;64024;55.820;37.574;2023-02-28T00:50:22;4.32;;;3.85;;
75446;SDS011;64024;55.820;37.574;2023-02-28T00:52:48;4.07;;;3.67;;
75446;SDS011;64024;55.820;37.574;2023-02-28T00:55:14;4.63;;;3.72;;
75446;SDS011;64024;55.820;37.574;2023-02-28T00:57:40;4.60;;;3.83;;
75446;SDS011;64024;55.820;37.574;2023-02-28T01:00:06;4.50;;;4.10;;
75446;SDS011;64024;55.820;37.574;2023-02-28T01:02:34;4.38;;;3.92;;
75446;SDS011;64024;55.820;37.574;2023-02-28T01:05:00;4.25;;;3.85;;
75446;SDS011;64024;55.820;37.574;2023-02-28T01:07:26;4.80;;;4.20;;
75446;SDS011;64024;55.820;37.574;2023-02-28T01:09:52;3.97;;;3.58;;
75446;SDS011;64024;55.820;37.574;2023-02-28T01:12:17;5.18;;;3.63;;
75446;SDS011;64024;55.820;37.574;2023-02-28T01:14:43;3.90;;;3.50;;
75446;SDS011;64024;55.820;37.574;2023-02-28T01:17:09;4.30;;;3.88;;
75446;SDS011;64024;55.820;37.574;2023-02-28T01:19:35;4.57;;;4.00;;
75446;SDS011;64024;55.820;37.574;2023-02-28T01:22:02;4.03;;;3.38;;
75446;SDS011;64024;55.820;37.574;2023-02-28T01:26:54;3.45;;;3.00;;
75446;SDS011;64024;55.820;37.574;2023-02-28T01:29:20;3.63;;;3.30;;
75446;SDS011;64024;55.820;37.574;2023-02-28T01:31:46;3.70;;;3.33;;
75446;SDS011;64024;55.820;37.574;2023-02-28T01:34:12;3.47;;;3.17;;
75446;SDS011;64024;55.820;37.574;2023-02-28T01:36:38;3.40;;;2.83;;
75446;SDS011;64024;55.820;37.574;2023-02-28T01:39:03;5.03;;;3.63;;
75446;SDS011;64024;55.820;37.574;2023-02-28T01:41:31;4.47;;;3.60;;
75446;SDS011;64024;55.820;37.574;2023-02-28T01:46:30;4.03;;;3.22;;
75446;SDS011;64024;55.820;37.574;2023-02-28T01:49:02;3.92;;;3.50;;
75446;SDS011;64024;55.820;37.574;2023-02-28T01:54:24;3.85;;;3.20;;
75446;SDS011;64024;55.820;37.574;2023-02-28T01:56:59;3.80;;;3.15;;
75446;SDS011;64024;55.820;37.574;2023-02-28T01:59:32;2.80;;;2.50;;
75446;SDS011;64024;55.820;37.574;2023-02-28T02:02:05;2.97;;;2.65;;
75446;SDS011;64024;55.820;37.574;2023-02-28T02:04:42;4.00;;;3.20;;
75446;SDS011;64024;55.820;37.574;2023-02-28T02:07:19;3.20;;;2.90;;
75446;SDS011;64024;55.820;37.574;2023-02-28T02:09:45;3.78;;;3.08;;
75446;SDS011;64024;55.820;37.574;2023-02-28T02:12:18;3.95;;;3.33;;
75446;SDS011;64024;55.820;37.574;2023-02-28T02:15:13;3.83;;;2.78;;
75446;SDS011;64024;55.820;37.574;2023-02-28T02:18:09;3.70;;;3.25;;
75446;SDS011;64024;55.820;37.574;2023-02-28T02:21:01;4.13;;;2.85;;
75446;SDS011;64024;55.820;37.574;2023-02-28T02:40:20;3.55;;;2.95;;
75446;SDS011;64024;55.820;37.574;2023-02-28T02:43:02;3.70;;;2.97;;
75446;SDS011;64024;55.820;37.574;2023-02-28T02:48:43;3.60;;;3.03;;
75446;SDS011;64024;55.820;37.574;2023-02-28T02:51:13;4.43;;;3.67;;
75446;SDS011;64024;55.820;37.574;2023-02-28T02:53:51;4.40;;;3.63;;
75446;SDS011;64024;55.820;37.574;2023-02-28T02:56:26;3.88;;;3.50;;
75446;SDS011;64024;55.820;37.574;2023-02-28T02:58:59;4.18;;;3.80;;
75446;SDS011;64024;55.820;37.574;2023-02-28T03:01:28;3.65;;;3.35;;
75446;SDS011;64024;55.820;37.574;2023-02-28T03:04:12;3.92;;;3.53;;
75446;SDS011;64024;55.820;37.574;2023-02-28T03:06:43;3.97;;;3.55;;
75446;SDS011;64024;55.820;37.574;2023-02-28T03:09:09;4.03;;;3.40;;
75446;SDS011;64024;55.820;37.574;2023-02-28T03:11:35;4.38;;;3.97;;
75446;SDS011;64024;55.820;37.574;2023-02-28T03:25:09;4.25;;;3.13;;
75446;SDS011;64024;55.820;37.574;2023-02-28T03:33:10;4.45;;;4.05;;
75446;SDS011;64024;55.820;37.574;2023-02-28T03:35:45;4.05;;;3.63;;
75446;SDS011;64024;55.820;37.574;2023-02-28T03:38:24;3.72;;;3.33;;
75446;SDS011;64024;55.820;37.574;2023-02-28T03:40:55;3.70;;;3.30;;
75446;SDS011;64024;55.820;37.574;2023-02-28T03:43:30;3.50;;;3.20;;
75446;SDS011;64024;55.820;37.574;2023-02-28T03:46:00;3.42;;;3.13;;
75446;SDS011;64024;55.820;37.574;2023-02-28T03:48:37;4.05;;;3.40;;
75446;SDS011;64024;55.820;37.574;2023-02-28T03:51:10;4.03;;;3.40;;
75446;SDS011;64024;55.820;37.574;2023-02-28T03:53:44;5.15;;;3.67;;
75446;SDS011;64024;55.820;37.574;2023-02-28T03:56:21;3.75;;;3.38;;
75446;SDS011;64024;55.820;37.574;2023-02-28T04:01:30;3.88;;;3.28;;
75446;SDS011;64024;55.820;37.574;2023-02-28T04:03:57;3.30;;;2.55;;
75446;SDS011;64024;55.820;37.574;2023-02-28T04:06:23;4.47;;;3.28;;
75446;SDS011;64024;55.820;37.574;2023-02-28T04:08:50;3.83;;;3.42;;
75446;SDS011;64024;55.820;37.574;2023-02-28T04:13:58;3.88;;;2.90;;
75446;SDS011;64024;55.820;37.574;2023-02-28T04:16:23;3.53;;;3.13;;
75446;SDS011;64024;55.820;37.574;2023-02-28T04:18:49;3.65;;;3.03;;
75446;SDS011;64024;55.820;37.574;2023-02-28T04:21:15;3.67;;;3.20;;
75446;SDS011;64024;55.820;37.574;2023-02-28T04:23:45;4.55;;;3.55;;
75446;SDS011;64024;55.820;37.574;2023-02-28T04:26:11;5.13;;;4.20;;
75446;SDS011;64024;55.820;37.574;2023-02-28T04:28:38;3.85;;;3.25;;
75446;SDS011;64024;55.820;37.574;2023-02-28T04:31:04;3.80;;;3.05;;
75446;SDS011;64024;55.820;37.574;2023-02-28T04:33:31;3.78;;;3.17;;
75446;SDS011;64024;55.820;37.574;2023-02-28T04:36:01;4.05;;;3.10;;
75446;SDS011;64024;55.820;37.574;2023-02-28T04:38:32;3.90;;;3.38;;
75446;SDS011;64024;55.820;37.574;2023-02-28T04:40:59;4.20;;;3.30;;
75446;SDS011;64024;55.820;37.574;2023-02-28T04:43:26;3.33;;;3.00;;
75446;SDS011;64024;55.820;37.574;2023-02-28T04:45:52;4.05;;;3.03;;
75446;SDS011;64024;55.820;37.574;2023-02-28T04:48:22;3.67;;;2.63;;
75446;SDS011;64024;55.820;37.574;2023-02-28T04:50:49;3.25;;;2.67;;
75446;SDS011;64024;55.820;37.574;2023-02-28T04:53:16;2.90;;;2.58;;
75446;SDS011;64024;55.820;37.574;2023-02-28T04:55:42;3.22;;;2.92;;
75446;SDS011;64024;55.820;37.574;2023-02-28T04:58:08;2.95;;;2.50;;
75446;SDS011;64024;55.820;37.574;2023-02-28T05:00:34;3.40;;;2.65;;
75446;SDS011;64024;55.820;37.574;2023-02-28T05:03:00;3.00;;;2.38;;
75446;SDS011;64024;55.820;37.574;2023-02-28T05:05:26;3.75;;;3.10;;
75446;SDS011;64024;55.820;37.574;2023-02-28T05:07:53;3.88;;;3.47;;
75446;SDS011;64024;55.820;37.574;2023-02-28T05:12:46;3.17;;;2.58;;
75446;SDS011;64024;55.820;37.574;2023-02-28T05:15:14;4.18;;;3.45;;
75446;SDS011;64024;55.820;37.574;2023-02-28T05:17:41;4.38;;;3.00;;
75446;SDS011;64024;55.820;37.574;2023-02-28T05:20:08;4.20;;;3.08;;
75446;SDS011;64024;55.820;37.574;2023-02-28T05:22:38;4.32;;;3.15;;
75446;SDS011;64024;55.820;37.574;2023-02-28T05:25:05;3.42;;;3.13;;
75446;SDS011;64024;55.820;37.574;2023-02-28T05:27:32;3.85;;;3.20;;
75446;SDS011;64024;55.820;37.574;2023-02-28T05:29:58;3.63;;;3.20;;
75446;SDS011;64024;55.820;37.574;2023-02-28T05:32:24;3.85;;;2.97;;
75446;SDS011;64024;55.820;37.574;2023-02-28T05:34:50;4.25;;;3.10;;
75446;SDS011;64024;55.820;37.574;2023-02-28T05:37:16;2.95;;;2.33;;
75446;SDS011;64024;55.820;37.574;2023-02-28T05:39:42;3.15;;;2.83;;
75446;SDS011;64024;55.820;37.574;2023-02-28T05:42:08;3.72;;;2.90;;
75446;SDS011;64024;55.820;37.574;2023-02-28T05:44:35;2.45;;;2.22;;
75446;SDS011;64024;55.820;37.574;2023-02-28T05:47:01;2.95;;;2.50;;
75446;SDS011;64024;55.820;37.574;2023-02-28T05:49:27;3.97;;;2.95;;
75446;SDS011;64024;55.820;37.574;2023-02-28T05:51:53;2.92;;;2.60;;
75446;SDS011;64024;55.820;37.574;2023-02-28T05:54:19;3.53;;;2.67;;
75446;SDS011;64024;55.820;37.574;2023-02-28T05:56:45;2.38;;;1.92;;
75446;SDS011;64024;55.820;37.574;2023-02-28T05:59:11;3.28;;;2.55;;
75446;SDS011;64024;55.820;37.574;2023-02-28T06:01:39;2.35;;;2.08;;
75446;SDS011;64024;55.820;37.574;2023-02-28T06:04:08;3.63;;;2.40;;
75446;SDS011;64024;55.820;37.574;2023-02-28T06:06:35;2.45;;;1.92;;
75446;SDS011;64024;55.820;37.574;2023-02-28T06:09:02;2.65;;;1.83;;
75446;SDS011;64024;55.820;37.574;2023-02-28T06:11:28;2.40;;;1.60;;
75446;SDS011;64024;55.820;37.574;2023-02-28T06:16:30;3.88;;;2.45;;
75446;SDS011;64024;55.820;37.574;2023-02-28T06:18:58;2.40;;;2.08;;
75446;SDS011;64024;55.820;37.574;2023-02-28T06:21:25;2.97;;;2.20;;
75446;SDS011;64024;55.820;37.574;2023-02-28T06:23:52;3.65;;;2.00;;
75446;SDS011;64024;55.820;37.574;2023-02-28T06:26:18;2.83;;;2.30;;
75446;SDS011;64024;55.820;37.574;2023-02-28T06:28:43;1.98;;;1.67;;
75446;SDS011;64024;55.820;37.574;2023-02-28T06:31:09;2.35;;;1.83;;
75446;SDS011;64024;55.820;37.574;2023-02-28T06:33:37;2.90;;;2.05;;
75446;SDS011;64024;55.820;37.574;2023-02-28T06:36:04;2.60;;;1.80;;
75446;SDS011;64024;55.820;37.574;2023-02-28T06:38:31;2.78;;;1.63;;
75446;SDS011;64024;55.820;37.574;2023-02-28T06:40:57;2.53;;;1.85;;
75446;SDS011;64024;55.820;37.574;2023-02-28T06:43:24;3.33;;;2.03;;
75446;SDS011;64024;55.820;37.574;2023-02-28T06:45:54;2.78;;;1.88;;
75446;SDS011;64024;55.820;37.574;2023-02-28T06:48:20;2.95;;;2.33;;
75446;SDS011;64024;55.820;37.574;2023-02-28T06:50:46;4.00;;;2.50;;
75446;SDS011;64024;55.820;37.574;2023-02-28T06:53:12;2.55;;;1.88;;
75446;SDS011;64024;55.820;37.574;2023-02-28T06:55:38;2.83;;;1.77;;
75446;SDS011;64024;55.820;37.574;2023-02-28T06:58:04;2.60;;;1.98;;
75446;SDS011;64024;55.820;37.574;2023-02-28T07:00:43;4.00;;;2.30;;
75446;SDS011;64024;55.820;37.574;2023-02-28T07:03:10;3.38;;;1.88;;
75446;SDS011;64024;55.820;37.574;2023-02-28T07:05:36;2.90;;;1.90;;
75446;SDS011;64024;55.820;37.574;2023-02-28T07:08:03;2.90;;;2.03;;
75446;SDS011;64024;55.820;37.574;2023-02-28T07:10:31;2.60;;;1.48;;
75446;SDS011;64024;55.820;37.574;2023-02-28T07:12:57;2.15;;;1.85;;
75446;SDS011;64024;55.820;37.574;2023-02-28T07:15:23;2.75;;;1.83;;
75446;SDS011;64024;55.820;37.574;2023-02-28T07:17:49;2.60;;;1.70;;
75446;SDS011;64024;55.820;37.574;2023-02-28T07:20:15;2.60;;;1.60;;
75446;SDS011;64024;55.820;37.574;2023-02-28T07:22:41;2.50;;;1.88;;
75446;SDS011;64024;55.820;37.574;2023-02-28T07:25:07;1.98;;;1.60;;
75446;SDS011;64024;55.820;37.574;2023-02-28T07:27:34;2.20;;;1.42;;
75446;SDS011;64024;55.820;37.574;2023-02-28T07:29:59;2.72;;;2.00;;
75446;SDS011;64024;55.820;37.574;2023-02-28T07:32:26;2.75;;;1.58;;
75446;SDS011;64024;55.820;37.574;2023-02-28T07:34:53;2.42;;;1.73;;
75446;SDS011;64024;55.820;37.574;2023-02-28T07:37:19;2.42;;;1.48;;
75446;SDS011;64024;55.820;37.574;2023-02-28T07:39:45;1.90;;;1.52;;
75446;SDS011;64024;55.820;37.574;2023-02-28T07:42:10;2.25;;;1.63;;
75446;SDS011;64024;55.820;37.574;2023-02-28T07:44:38;1.95;;;1.40;;
75446;SDS011;64024;55.820;37.574;2023-02-28T07:47:07;2.65;;;1.90;;
75446;SDS011;64024;55.820;37.574;2023-02-28T07:49:34;2.42;;;1.75;;
75446;SDS011;64024;55.820;37.574;2023-02-28T07:52:03;3.88;;;2.13;;
75446;SDS011;64024;55.820;37.574;2023-02-28T07:56:55;2.58;;;1.65;;
75446;SDS011;64024;55.820;37.574;2023-02-28T07:59:21;2.42;;;1.80;;
75446;SDS011;64024;55.820;37.574;2023-02-28T08:01:47;3.10;;;2.70;;
75446;SDS011;64024;55.820;37.574;2023-02-28T08:04:15;3.25;;;2.47;;
75446;SDS011;64024;55.820;37.574;2023-02-28T08:06:43;4.18;;;2.80;;
75446;SDS011;64024;55.820;37.574;2023-02-28T08:09:09;3.25;;;2.40;;
75446;SDS011;64024;55.820;37.574;2023-02-28T08:11:35;3.33;;;2.35;;
75446;SDS011;64024;55.820;37.574;2023-02-28T08:14:01;3.95;;;2.60;;
75446;SDS011;64024;55.820;37.574;2023-02-28T08:16:27;2.85;;;2.55;;
75446;SDS011;64024;55.820;37.574;2023-02-28T08:18:53;3.35;;;2.85;;
75446;SDS011;64024;55.820;37.574;2023-02-28T08:21:19;4.38;;;3.70;;
75446;SDS011;64024;55.820;37.574;2023-02-28T08:23:48;3.30;;;3.00;;
75446;SDS011;64024;55.820;37.574;2023-02-28T08:26:16;3.58;;;2.97;;
75446;SDS011;64024;55.820;37.574;2023-02-28T08:28:44;4.07;;;3.38;;
75446;SDS011;64024;55.820;37.574;2023-02-28T08:31:10;4.28;;;3.30;;
75446;SDS011;64024;55.820;37.574;2023-02-28T08:33:38;7.63;;;3.75;;
75446;SDS011;64024;55.820;37.574;2023-02-28T08:36:05;3.33;;;2.88;;
75446;SDS011;64024;55.820;37.574;2023-02-28T08:38:31;3.90;;;3.00;;
75446;SDS011;64024;55.820;37.574;2023-02-28T08:40:58;3.67;;;2.85;;
75446;SDS011;64024;55.820;37.574;2023-02-28T08:43:25;3.10;;;2.45;;
75446;SDS011;64024;55.820;37.574;2023-02-28T08:45:51;3.45;;;2.85;;
75446;SDS011;64024;55.820;37.574;2023-02-28T08:48:17;4.30;;;2.80;;
75446;SDS011;64024;55.820;37.574;2023-02-28T08:50:42;3.00;;;2.58;;
75446;SDS011;64024;55.820;37.574;2023-02-28T08:53:08;4.97;;;2.70;;
75446;SDS011;64024;55.820;37.574;2023-02-28T08:55:34;4.18;;;3.35;;
75446;SDS011;64024;55.820;37.574;2023-02-28T08:57:59;4.35;;;3.00;;
75446;SDS011;64024;55.820;37.574;2023-02-28T09:00:26;3.38;;;3.08;;
75446;SDS011;64024;55.820;37.574;2023-02-28T09:02:52;4.43;;;3.30;;
75446;SDS011;64024;55.820;37.574;2023-02-28T09:05:17;3.30;;;2.80;;
75446;SDS011;64024;55.820;37.574;2023-02-28T09:07:43;3.42;;;3.00;;
75446;SDS011;64024;55.820;37.574;2023-02-28T09:10:09;4.22;;;3.13;;
75446;SDS011;64024;55.820;37.574;2023-02-28T09:12:35;3.85;;;2.85;;
75446;SDS011;64024;55.820;37.574;2023-02-28T09:15:01;3.90;;;3.25;;
75446;SDS011;64024;55.820;37.574;2023-02-28T09:17:27;3.53;;;2.85;;
75446;SDS011;64024;55.820;37.574;2023-02-28T09:19:52;5.15;;;2.97;;
75446;SDS011;64024;55.820;37.574;2023-02-28T09:22:18;3.58;;;2.70;;
75446;SDS011;64024;55.820;37.574;2023-02-28T09:24:44;3.50;;;3.15;;
75446;SDS011;64024;55.820;37.574;2023-02-28T09:27:09;4.43;;;3.20;;
75446;SDS011;64024;55.820;37.574;2023-02-28T09:29:35;3.88;;;3.05;;
75446;SDS011;64024;55.820;37.574;2023-02-28T09:32:01;5.15;;;3.38;;
75446;SDS011;64024;55.820;37.574;2023-02-28T09:34:27;3.60;;;3.13;;
75446;SDS011;64024;55.820;37.574;2023-02-28T09:36:55;3.85;;;3.38;;
75446;SDS011;64024;55.820;37.574;2023-02-28T09:39:21;3.53;;;3.10;;
75446;SDS011;64024;55.820;37.574;2023-02-28T09:41:49;4.03;;;3.15;;
75446;SDS011;64024;55.820;37.574;2023-02-28T09:46:54;4.13;;;3.20;;
75446;SDS011;64024;55.820;37.574;2023-02-28T09:49:25;3.60;;;3.10;;
75446;SDS011;64024;55.820;37.574;2023-02-28T09:52:09;3.97;;;3.13;;
75446;SDS011;64024;55.820;37.574;2023-02-28T09:54:38;3.88;;;2.75;;
75446;SDS011;64024;55.820;37.574;2023-02-28T10:00:03;3.90;;;3.08;;
75446;SDS011;64024;55.820;37.574;2023-02-28T10:05:51;2.95;;;2.60;;
75446;SDS011;64024;55.820;37.574;2023-02-28T10:08:21;3.55;;;3.03;;
75446;SDS011;64024;55.820;37.574;2023-02-28T10:10:57;3.40;;;2.67;;
75446;SDS011;64024;55.820;37.574;2023-02-28T10:13:33;3.13;;;2.47;;
75446;SDS011;64024;55.820;37.574;2023-02-28T10:16:13;2.55;;;2.33;;
75446;SDS011;64024;55.820;37.574;2023-02-28T10:18:49;3.17;;;2.58;;
75446;SDS011;64024;55.820;37.574;2023-02-28T10:21:31;3.20;;;2.35;;
75446;SDS011;64024;55.820;37.574;2023-02-28T10:24:45;4.13;;;3.10;;
75446;SDS011;64024;55.820;37.574;2023-02-28T10:27:17;2.92;;;2.50;;
75446;SDS011;64024;55.820;37.574;2023-02-28T10:29:51;2.80;;;2.28;;
75446;SDS011;64024;55.820;37.574;2023-02-28T10:34:50;3.13;;;2.22;;
75446;SDS011;64024;55.820;37.574;2023-02-28T10:37:19;3.63;;;2.17;;
75446;SDS011;64024;55.820;37.574;2023-02-28T10:39:46;3.63;;;2.50;;
75446;SDS011;64024;55.820;37.574;2023-02-28T10:42:28;3.20;;;2.30;;
75446;SDS011;64024;55.820;37.574;2023-02-28T10:55:35;3.55;;;2.55;;
75446;SDS011;64024;55.820;37.574;2023-02-28T10:58:01;3.03;;;2.72;;
75446;SDS011;64024;55.820;37.574;2023-02-28T11:00:32;3.75;;;2.75;;
75446;SDS011;64024;55.820;37.574;2023-02-28T11:02:59;4.25;;;3.58;;
75446;SDS011;64024;55.820;37.574;2023-02-28T11:05:29;5.20;;;4.55;;
75446;SDS011;64024;55.820;37.574;2023-02-28T11:08:03;6.60;;;4.45;;
75446;SDS011;64024;55.820;37.574;2023-02-28T11:10:44;6.18;;;4.55;;
75446;SDS011;64024;55.820;37.574;2023-02-28T11:13:19;10.13;;;5.28;;
75446;SDS011;64024;55.820;37.574;2023-02-28T11:15:55;6.00;;;4.65;;
75446;SDS011;64024;55.820;37.574;2023-02-28T11:18:28;5.60;;;4.65;;
75446;SDS011;64024;55.820;37.574;2023-02-28T11:20:56;7.22;;;3.88;;
75446;SDS011;64024;55.820;37.574;2023-02-28T11:23:25;5.45;;;3.35;;
75446;SDS011;64024;55.820;37.574;2023-02-28T11:25:54;5.05;;;3.15;;
75446;SDS011;64024;55.820;37.574;2023-02-28T11:33:42;4.07;;;2.85;;
75446;SDS011;64024;55.820;37.574;2023-02-28T11:36:22;4.38;;;2.72;;
75446;SDS011;64024;55.820;37.574;2023-02-28T11:38:56;2.60;;;2.10;;
75446;SDS011;64024;55.820;37.574;2023-02-28T11:59:52;3.78;;;3.05;;
75446;SDS011;64024;55.820;37.574;2023-02-28T12:10:42;3.20;;;2.88;;
75446;SDS011;64024;55.820;37.574;2023-02-28T12:13:21;3.55;;;2.72;;
75446;SDS011;64024;55.820;37.574;2023-02-28T12:19:22;2.28;;;1.95;;
75446;SDS011;64024;55.820;37.574;2023-02-28T12:24:48;2.33;;;1.92;;
75446;SDS011;64024;55.820;37.574;2023-02-28T12:27:28;2.92;;;2.25;;
75446;SDS011;64024;55.820;37.574;2023-02-28T12:32:36;5.15;;;2.72;;
75446;SDS011;64024;55.820;37.574;2023-02-28T12:35:11;3.53;;;2.08;;
75446;SDS011;64024;55.820;37.574;2023-02-28T12:37:44;2.38;;;2.05;;
75446;SDS011;64024;55.820;37.574;2023-02-28T12:40:17;3.53;;;3.22;;
75446;SDS011;64024;55.820;37.574;2023-02-28T12:42:47;3.17;;;2.20;;
75446;SDS011;64024;55.820;37.574;2023-02-28T12:45:20;2.75;;;2.17;;
75446;SDS011;64024;55.820;37.574;2023-02-28T12:47:51;3.25;;;2.75;;
75446;SDS011;64024;55.820;37.574;2023-02-28T12:50:29;2.90;;;2.08;;
75446;SDS011;64024;55.820;37.574;2023-02-28T12:53:09;2.50;;;1.95;;
75446;SDS011;64024;55.820;37.574;2023-02-28T13:09:59;1.73;;;1.52;;
75446;SDS011;64024;55.820;37.574;2023-02-28T13:12:27;4.20;;;3.40;;
75446;SDS011;64024;55.820;37.574;2023-02-28T13:15:04;3.30;;;2.75;;
75446;SDS011;64024;55.820;37.574;2023-02-28T13:17:41;3.70;;;3.15;;
75446;SDS011;64024;55.820;37.574;2023-02-28T13:20:18;3.55;;;3.15;;
75446;SDS011;64024;55.820;37.574;2023-02-28T13:22:49;4.20;;;2.40;;
75446;SDS011;64024;55.820;37.574;2023-02-28T13:27:58;3.25;;;2.53;;
75446;SDS011;64024;55.820;37.574;2023-02-28T13:33:37;2.63;;;2.05;;
75446;SDS011;64024;55.820;37.574;2023-02-28T13:39:01;3.13;;;2.80;;
75446;SDS011;64024;55.820;37.574;2023-02-28T13:41:47;3.05;;;2.17;;
75446;SDS011;64024;55.820;37.574;2023-02-28T13:51:48;2.50;;;2.10;;
75446;SDS011;64024;55.820;37.574;2023-02-28T13:54:17;2.70;;;2.33;;
75446;SDS011;64024;55.820;37.574;2023-02-28T13:57:24;2.53;;;2.13;;
75446;SDS011;64024;55.820;37.574;2023-02-28T14:07:46;3.65;;;2.33;;
75446;SDS011;64024;55.820;37.574;2023-02-28T14:11:02;3.17;;;2.30;;
75446;SDS011;64024;55.820;37.574;2023-02-28T14:15:58;3.40;;;2.10;;
75446;SDS011;64024;55.820;37.574;2023-02-28T14:18:26;4.32;;;2.63;;
75446;SDS011;64024;55.820;37.574;2023-02-28T14:20:56;3.15;;;2.25;;
75446;SDS011;64024;55.820;37.574;2023-02-28T14:29:51;3.20;;;2.30;;
75446;SDS011;64024;55.820;37.574;2023-02-28T14:32:45;2.28;;;2.05;;
75446;SDS011;64024;55.820;37.574;2023-02-28T14:38:01;2.75;;;2.22;;
75446;SDS011;64024;55.820;37.574;2023-02-28T14:40:32;2.80;;;2.35;;
75446;SDS011;64024;55.820;37.574;2023-02-28T14:43:04;3.10;;;2.50;;
75446;SDS011;64024;55.820;37.574;2023-02-28T14:45:32;3.08;;;2.22;;
75446;SDS011;64024;55.820;37.574;2023-02-28T14:48:01;3.53;;;2.25;;
75446;SDS011;64024;55.820;37.574;2023-02-28T14:50:30;3.15;;;2.58;;
75446;SDS011;64024;55.820;37.574;2023-02-28T14:52:59;2.42;;;2.15;;
75446;SDS011;64024;55.820;37.574;2023-02-28T14:55:31;3.53;;;2.33;;
75446;SDS011;64024;55.820;37.574;2023-02-28T14:58:01;2.85;;;2.30;;
75446;SDS011;64024;55.820;37.574;2023-02-28T15:00:32;3.10;;;2.45;;
75446;SDS011;64024;55.820;37.574;2023-02-28T15:03:00;3.15;;;2.80;;
75446;SDS011;64024;55.820;37.574;2023-02-28T15:05:42;2.58;;;2.20;;
75446;SDS011;64024;55.820;37.574;2023-02-28T15:08:16;4.05;;;2.85;;
75446;SDS011;64024;55.820;37.574;2023-02-28T15:10:43;3.22;;;2.55;;
75446;SDS011;64024;55.820;37.574;2023-02-28T15:13:12;3.08;;;2.58;;
75446;SDS011;64024;55.820;37.574;2023-02-28T15:18:10;3.13;;;2.60;;
75446;SDS011;64024;55.820;37.574;2023-02-28T15:20:47;3.00;;;2.58;;
75446;SDS011;64024;55.820;37.574;2023-02-28T15:23:14;3.25;;;2.80;;
75446;SDS011;64024;55.820;37.574;2023-02-28T15:25:40;2.70;;;2.28;;
75446;SDS011;64024;55.820;37.574;2023-02-28T15:28:09;2.63;;;2.30;;
75446;SDS011;64024;55.820;37.574;2023-02-28T15:30:49;3.08;;;2.50;;
75446;SDS011;64024;55.820;37.574;2023-02-28T15:33:33;4.00;;;2.22;;
75446;SDS011;64024;55.820;37.574;2023-02-28T15:36:06;3.13;;;2.58;;
75446;SDS011;64024;55.820;37.574;2023-02-28T15:38:38;3.40;;;2.67;;
75446;SDS011;64024;55.820;37.574;2023-02-28T15:41:03;3.05;;;2.17;;
75446;SDS011;64024;55.820;37.574;2023-02-28T15:43:36;2.63;;;2.42;;
75446;SDS011;64024;55.820;37.574;2023-02-28T15:51:15;2.85;;;2.38;;
75446;SDS011;64024;55.820;37.574;2023-02-28T15:53:48;2.92;;;2.25;;
75446;SDS011;64024;55.820;37.574;2023-02-28T15:58:58;3.03;;;2.42;;
75446;SDS011;64024;55.820;37.574;2023-02-28T16:01:29;2.72;;;2.15;;
75446;SDS011;64024;55.820;37.574;2023-02-28T16:04:00;2.80;;;2.10;;
75446;SDS011;64024;55.820;37.574;2023-02-28T16:08:56;3.78;;;3.00;;
75446;SDS011;64024;55.820;37.574;2023-02-28T16:11:24;2.97;;;2.40;;
75446;SDS011;64024;55.820;37.574;2023-02-28T16:13:50;2.90;;;2.20;;
75446;SDS011;64024;55.820;37.574;2023-02-28T16:16:18;2.53;;;2.28;;
75446;SDS011;64024;55.820;37.574;2023-02-28T16:18:46;3.65;;;2.83;;
75446;SDS011;64024;55.820;37.574;2023-02-28T16:21:12;2.95;;;2.25;;
75446;SDS011;64024;55.820;37.574;2023-02-28T16:23:37;2.78;;;2.28;;
75446;SDS011;64024;55.820;37.574;2023-02-28T16:26:03;3.35;;;2.38;;
75446;SDS011;64024;55.820;37.574;2023-02-28T16:28:31;3.13;;;2.53;;
75446;SDS011;64024;55.820;37.574;2023-02-28T16:31:00;3.25;;;2.80;;
75446;SDS011;64024;55.820;37.574;2023-02-28T16:33:30;3.45;;;2.83;;
75446;SDS011;64024;55.820;37.574;2023-02-28T16:35:56;2.53;;;1.95;;
75446;SDS011;64024;55.820;37.574;2023-02-28T16:38:22;2.47;;;2.00;;
75446;SDS011;64024;55.820;37.574;2023-02-28T16:40:50;8.05;;;2.40;;
75446;SDS011;64024;55.820;37.574;2023-02-28T16:43:20;3.17;;;2.20;;
75446;SDS011;64024;55.820;37.574;2023-02-28T16:45:56;2.50;;;2.05;;
75446;SDS011;64024;55.820;37.574;2023-02-28T16:48:23;2.30;;;1.92;;
75446;SDS011;64024;55.820;37.574;2023-02-28T16:50:50;2.38;;;2.03;;
75446;SDS011;64024;55.820;37.574;2023-02-28T16:53:16;2.38;;;1.92;;
75446;SDS011;64024;55.820;37.574;2023-02-28T16:55:42;3.10;;;2.17;;
75446;SDS011;64024;55.820;37.574;2023-02-28T16:58:10;3.22;;;2.55;;
75446;SDS011;64024;55.820;37.574;2023-02-28T17:00:39;2.78;;;2.15;;
75446;SDS011;64024;55.820;37.574;2023-02-28T17:03:05;3.70;;;2.90;;
75446;SDS011;64024;55.820;37.574;2023-02-28T17:05:35;2.60;;;2.28;;
75446;SDS011;64024;55.820;37.574;2023-02-28T17:08:04;2.78;;;2.22;;
75446;SDS011;64024;55.820;37.574;2023-02-28T17:10:30;2.90;;;2.38;;
75446;SDS011;64024;55.820;37.574;2023-02-28T17:12:56;3.22;;;2.75;;
75446;SDS011;64024;55.820;37.574;2023-02-28T17:15:21;2.60;;;1.95;;
75446;SDS011;64024;55.820;37.574;2023-02-28T17:17:47;2.72;;;2.00;;
75446;SDS011;64024;55.820;37.574;2023-02-28T17:20:14;4.40;;;2.50;;
75446;SDS011;64024;55.820;37.574;2023-02-28T17:25:07;2.25;;;1.63;;
75446;SDS011;64024;55.820;37.574;2023-02-28T17:27:34;1.98;;;1.45;;
75446;SDS011;64024;55.820;37.574;2023-02-28T17:29:59;2.58;;;2.28;;
75446;SDS011;64024;55.820;37.574;2023-02-28T17:32:26;2.78;;;1.85;;
75446;SDS011;64024;55.820;37.574;2023-02-28T17:34:52;2.33;;;2.03;;
75446;SDS011;64024;55.820;37.574;2023-02-28T17:37:18;2.15;;;1.63;;
75446;SDS011;64024;55.820;37.574;2023-02-28T17:39:44;2.83;;;1.77;;
75446;SDS011;64024;55.820;37.574;2023-02-28T17:42:09;2.08;;;1.88;;
75446;SDS011;64024;55.820;37.574;2023-02-28T17:44:35;2.47;;;1.98;;
75446;SDS011;64024;55.820;37.574;2023-02-28T17:47:02;2.17;;;1.63;;
75446;SDS011;64024;55.820;37.574;2023-02-28T17:49:27;3.33;;;1.90;;
75446;SDS011;64024;55.820;37.574;2023-02-28T17:51:53;2.40;;;1.80;;